createdAt,value
2023-07-24T00:00:41.699Z,99641.94
2023-07-24T00:01:44.493Z,99641.59
2023-07-24T00:02:46.833Z,99639.86
2023-07-24T00:03:49.525Z,99632.95
2023-07-24T00:04:52.398Z,99628.78
2023-07-24T00:07:11.062Z,99634.45
2023-07-24T00:08:14.305Z,99627.77
2023-07-24T00:09:17.275Z,99631.34
2023-07-24T00:10:19.981Z,99622.25
2023-07-24T00:11:22.603Z,99624.62
2023-07-24T00:12:25.517Z,99625.09
2023-07-24T00:13:27.819Z,99624.73
2023-07-24T00:14:30.201Z,99632.02
2023-07-24T00:15:32.547Z,99622.45
2023-07-24T00:16:35.230Z,99624.86
2023-07-24T00:17:37.699Z,99628.19
2023-07-24T00:18:40.269Z,99626.52
2023-07-24T00:19:42.668Z,99625.56
2023-07-24T00:20:45.122Z,99623.53
2023-07-24T00:21:47.434Z,99620.51
2023-07-24T00:22:49.599Z,99617.88
2023-07-24T00:23:52.722Z,99624.60
2023-07-24T00:24:55.057Z,99614.69
2023-07-24T00:25:57.394Z,99613.15
2023-07-24T00:26:59.786Z,99613.15
2023-07-24T00:28:02.147Z,99611.25
2023-07-24T00:29:04.498Z,99611.25
2023-07-24T00:30:08.991Z,99614.78
2023-07-24T00:31:12.541Z,99614.30
2023-07-24T00:32:15.140Z,99616.93
2023-07-24T00:33:17.330Z,99618.27
2023-07-24T00:34:20.938Z,99611.94
2023-07-24T00:35:23.664Z,99604.30
2023-07-24T00:36:26.932Z,99609.09
2023-07-24T00:37:29.638Z,99603.36
2023-07-24T00:38:32.156Z,99607.92
2023-07-24T00:39:34.407Z,99601.20
2023-07-24T00:40:37.232Z,99607.20
2023-07-24T00:41:42.186Z,99610.05
2023-07-24T00:42:50.059Z,99599.66
2023-07-24T00:43:52.378Z,99596.89
2023-07-24T00:44:54.616Z,99601.08
2023-07-24T00:45:58.139Z,99599.52
2023-07-24T00:47:01.205Z,99599.98
2023-07-24T00:48:03.681Z,99603.78
2023-07-24T00:49:06.054Z,99600.67
2023-07-24T00:50:10.414Z,99604.73
2023-07-24T00:51:12.874Z,99597.66
2023-07-24T00:52:16.269Z,99600.75
2023-07-24T00:53:20.345Z,99602.67
2023-07-24T00:54:24.512Z,99604.56
2023-07-24T00:55:27.422Z,99603.50
2023-07-24T00:56:33.193Z,99594.20
2023-07-24T00:57:35.808Z,99606.15
2023-07-24T00:58:39.145Z,99600.67
2023-07-24T00:59:42.774Z,99596.02
2023-07-24T01:00:45.801Z,99601.02
2023-07-24T01:01:48.594Z,99596.34
2023-07-24T01:02:52.124Z,99591.79
2023-07-24T01:03:57.881Z,99601.33
2023-07-24T01:05:02.183Z,99596.53
2023-07-24T01:06:05.197Z,99587.00
2023-07-24T01:07:07.574Z,99595.25
2023-07-24T01:08:10.620Z,99593.11
2023-07-24T01:09:14.084Z,99596.47
2023-07-24T01:10:17.081Z,99589.91
2023-07-24T01:11:23.605Z,99592.66
2023-07-24T01:12:42.149Z,99584.44
2023-07-24T01:13:50.961Z,99587.41
2023-07-24T01:14:56.930Z,99591.22
2023-07-24T01:16:09.350Z,99589.54
2023-07-24T01:17:15.375Z,99588.59
2023-07-24T01:18:19.898Z,99594.19
2023-07-24T01:19:40.396Z,99589.38
2023-07-24T01:20:46.378Z,99591.44
2023-07-24T01:22:02.081Z,99589.91
2023-07-24T01:23:41.951Z,99590.48
2023-07-24T01:26:08.441Z,99590.33
2023-07-24T01:27:10.895Z,99596.47
2023-07-24T01:28:13.758Z,99596.47
2023-07-24T01:29:16.176Z,99595.46
2023-07-24T01:30:21.914Z,99592.95
2023-07-24T01:31:25.233Z,99590.42
2023-07-24T01:32:28.387Z,99596.58
2023-07-24T01:33:32.295Z,99601.62
2023-07-24T01:34:34.616Z,99594.23
2023-07-24T01:35:39.193Z,99599.03
2023-07-24T01:36:41.819Z,99591.28
2023-07-24T01:37:45.692Z,99585.56
2023-07-24T01:38:50.316Z,99595.25
2023-07-24T01:39:55.025Z,99595.28
2023-07-24T01:40:58.215Z,99592.23
2023-07-24T01:42:02.809Z,99596.41
2023-07-24T01:43:05.286Z,99599.16
2023-07-24T01:44:07.965Z,99594.52
2023-07-24T01:45:11.984Z,99595.86
2023-07-24T01:46:14.464Z,99599.06
2023-07-24T01:47:16.810Z,99590.75
2023-07-24T01:48:19.146Z,99595.63
2023-07-24T01:49:21.412Z,99588.60
2023-07-24T01:50:23.818Z,99579.39
2023-07-24T01:51:28.170Z,99590.42
2023-07-24T01:52:30.649Z,99588.15
2023-07-24T01:53:33.242Z,99583.14
2023-07-24T01:54:36.131Z,99588.28
2023-07-24T01:55:39.316Z,99586.38
2023-07-24T01:56:42.003Z,99592.11
2023-07-24T01:57:44.592Z,99591.86
2023-07-24T01:58:46.841Z,99601.08
2023-07-24T01:59:49.743Z,99599.52
2023-07-24T02:00:56.446Z,99595.22
2023-07-24T02:01:58.692Z,99590.20
2023-07-24T02:03:02.058Z,99600.95
2023-07-24T02:04:04.830Z,99588.27
2023-07-24T02:05:09.394Z,99605.68
2023-07-24T02:06:11.930Z,99598.99
2023-07-24T02:07:14.684Z,99596.48
2023-07-24T02:08:17.148Z,99599.46
2023-07-24T02:09:20.313Z,99606.27
2023-07-24T02:10:22.849Z,99606.47
2023-07-24T02:11:27.659Z,99611.45
2023-07-24T02:12:33.078Z,99608.81
2023-07-24T02:13:35.641Z,99614.74
2023-07-24T02:14:38.241Z,99615.56
2023-07-24T02:15:41.124Z,99617.21
2023-07-24T02:16:44.795Z,99615.70
2023-07-24T02:17:47.378Z,99622.48
2023-07-24T02:18:51.042Z,99615.05
2023-07-24T02:19:53.512Z,99616.76
2023-07-24T02:20:57.267Z,99610.82
2023-07-24T02:22:00.795Z,99619.63
2023-07-24T02:23:02.940Z,99617.88
2023-07-24T02:24:05.716Z,99621.55
2023-07-24T02:25:08.955Z,99611.89
2023-07-24T02:26:11.767Z,99613.80
2023-07-24T02:27:17.413Z,99615.45
2023-07-24T02:28:19.954Z,99607.89
2023-07-24T02:29:23.112Z,99605.38
2023-07-24T02:30:26.374Z,99604.76
2023-07-24T02:31:28.761Z,99609.06
2023-07-24T02:32:32.989Z,99605.58
2023-07-24T02:33:35.426Z,99616.70
2023-07-24T02:34:37.818Z,99615.22
2023-07-24T02:35:41.828Z,99618.47
2023-07-24T02:36:44.258Z,99616.08
2023-07-24T02:37:46.666Z,99622.89
2023-07-24T02:38:48.939Z,99620.07
2023-07-24T02:39:53.905Z,99618.70
2023-07-24T02:40:56.880Z,99619.64
2023-07-24T02:41:59.139Z,99619.64
2023-07-24T02:43:01.456Z,99620.93
2023-07-24T02:44:05.664Z,99629.31
2023-07-24T02:45:10.662Z,99620.50
2023-07-24T02:46:13.305Z,99623.32
2023-07-24T02:47:15.595Z,99617.53
2023-07-24T02:48:18.434Z,99623.41
2023-07-24T02:49:20.696Z,99619.52
2023-07-24T02:50:23.499Z,99617.33
2023-07-24T02:51:26.261Z,99621.01
2023-07-24T02:52:28.697Z,99613.34
2023-07-24T02:53:31.125Z,99619.75
2023-07-24T02:54:33.507Z,99617.33
2023-07-24T02:55:36.089Z,99623.83
2023-07-24T02:56:39.682Z,99620.49
2023-07-24T02:57:43.102Z,99620.27
2023-07-24T02:58:46.884Z,99623.41
2023-07-24T02:59:49.685Z,99630.56
2023-07-24T03:00:52.020Z,99625.31
2023-07-24T03:01:54.285Z,99626.45
2023-07-24T03:02:56.629Z,99626.77
2023-07-24T03:03:58.813Z,99626.87
2023-07-24T03:05:02.195Z,99628.25
2023-07-24T03:06:04.836Z,99624.45
2023-07-24T03:07:08.116Z,99623.00
2023-07-24T03:08:11.553Z,99624.30
2023-07-24T03:09:13.904Z,99612.94
2023-07-24T03:10:16.655Z,99620.87
2023-07-24T03:11:18.989Z,99617.82
2023-07-24T03:12:21.472Z,99619.38
2023-07-24T03:13:24.795Z,99619.50
2023-07-24T03:14:27.403Z,99626.44
2023-07-24T03:15:29.965Z,99625.49
2023-07-24T03:16:32.796Z,99619.62
2023-07-24T03:17:35.091Z,99622.33
2023-07-24T03:18:37.409Z,99623.19
2023-07-24T03:19:39.685Z,99623.58
2023-07-24T03:20:43.563Z,99626.73
2023-07-24T03:21:46.006Z,99627.44
2023-07-24T03:22:48.415Z,99619.36
2023-07-24T03:23:51.397Z,99619.00
2023-07-24T03:24:53.897Z,99620.69
2023-07-24T03:25:56.113Z,99620.26
2023-07-24T03:27:01.181Z,99621.75
2023-07-24T03:28:04.438Z,99623.86
2023-07-24T03:29:07.428Z,99627.00
2023-07-24T03:30:10.485Z,99618.38
2023-07-24T03:31:13.093Z,99616.50
2023-07-24T03:32:15.437Z,99610.80
2023-07-24T03:33:17.824Z,99610.80
2023-07-24T03:34:20.382Z,99607.30
2023-07-24T03:35:22.574Z,99611.98
2023-07-24T03:36:25.334Z,99607.97
2023-07-24T03:37:27.790Z,99605.14
2023-07-24T03:38:29.993Z,99602.96
2023-07-24T03:39:32.528Z,99611.39
2023-07-24T03:40:35.573Z,99613.02
2023-07-24T03:42:52.022Z,99609.16
2023-07-24T03:43:54.177Z,99610.92
2023-07-24T03:44:59.289Z,99613.72
2023-07-24T03:46:02.300Z,99616.69
2023-07-24T03:47:04.770Z,99607.20
2023-07-24T03:48:07.474Z,99608.27
2023-07-24T03:49:09.954Z,99612.81
2023-07-24T03:50:12.722Z,99603.03
2023-07-24T03:51:15.747Z,99596.63
2023-07-24T03:52:18.463Z,99596.63
2023-07-24T03:53:20.779Z,99600.89
2023-07-24T03:54:23.012Z,99592.80
2023-07-24T03:55:25.448Z,99599.88
2023-07-24T03:56:28.174Z,99602.84
2023-07-24T03:57:30.813Z,99597.59
2023-07-24T03:58:34.194Z,99599.66
2023-07-24T03:59:36.844Z,99602.03
2023-07-24T04:00:40.462Z,99599.78
2023-07-24T04:01:44.554Z,99600.73
2023-07-24T04:02:49.277Z,99601.94
2023-07-24T04:03:52.826Z,99599.30
2023-07-24T04:04:55.109Z,99607.41
2023-07-24T04:05:57.414Z,99597.15
2023-07-24T04:07:00.833Z,99603.23
2023-07-24T04:08:03.650Z,99595.09
2023-07-24T04:09:06.427Z,99594.95
2023-07-24T04:10:09.789Z,99598.19
2023-07-24T04:11:12.516Z,99594.52
2023-07-24T04:12:15.092Z,99588.30
2023-07-24T04:13:18.334Z,99587.82
2023-07-24T04:14:21.771Z,99594.06
2023-07-24T04:15:26.029Z,99589.00
2023-07-24T04:16:29.590Z,99588.58
2023-07-24T04:17:32.945Z,99583.41
2023-07-24T04:18:35.344Z,99586.16
2023-07-24T04:19:37.776Z,99586.88
2023-07-24T04:20:40.061Z,99583.52
2023-07-24T04:21:42.927Z,99589.28
2023-07-24T04:22:46.636Z,99589.48
2023-07-24T04:23:51.373Z,99583.52
2023-07-24T04:24:54.071Z,99582.07
2023-07-24T04:25:57.621Z,99582.07
2023-07-24T04:27:01.400Z,99584.58
2023-07-24T04:28:03.846Z,99581.84
2023-07-24T04:29:07.700Z,99576.22
2023-07-24T04:30:13.682Z,99583.72
2023-07-24T04:31:17.664Z,99578.94
2023-07-24T04:32:20.643Z,99565.95
2023-07-24T04:33:24.995Z,99565.95
2023-07-24T04:34:27.253Z,99577.67
2023-07-24T04:35:29.552Z,99584.84
2023-07-24T04:36:32.317Z,99576.22
2023-07-24T04:37:35.123Z,99579.34
2023-07-24T04:38:37.472Z,99578.25
2023-07-24T04:39:40.442Z,99577.39
2023-07-24T04:40:45.952Z,99583.34
2023-07-24T04:41:48.719Z,99583.94
2023-07-24T04:42:51.239Z,99587.74
2023-07-24T04:43:53.664Z,99582.80
2023-07-24T04:44:56.200Z,99581.25
2023-07-24T04:45:58.456Z,99589.87
2023-07-24T04:47:02.176Z,99587.26
2023-07-24T04:48:05.804Z,99582.58
2023-07-24T04:50:27.111Z,99581.48
2023-07-24T04:51:29.437Z,99579.40
2023-07-24T04:52:31.794Z,99581.08
2023-07-24T04:53:34.522Z,99581.99
2023-07-24T04:54:36.695Z,99577.89
2023-07-24T04:55:39.288Z,99580.98
2023-07-24T04:56:41.809Z,99581.92
2023-07-24T04:57:44.093Z,99581.68
2023-07-24T04:58:46.406Z,99578.05
2023-07-24T04:59:49.217Z,99584.31
2023-07-24T05:00:51.782Z,99578.46
2023-07-24T05:01:54.085Z,99580.00
2023-07-24T05:02:57.563Z,99582.81
2023-07-24T05:04:00.025Z,99574.53
2023-07-24T05:05:02.757Z,99572.48
2023-07-24T05:06:05.737Z,99571.05
2023-07-24T05:07:08.634Z,99574.13
2023-07-24T05:08:11.938Z,99573.63
2023-07-24T05:09:15.009Z,99577.09
2023-07-24T05:10:17.685Z,99576.72
2023-07-24T05:11:21.238Z,99571.50
2023-07-24T05:12:26.057Z,99578.83
2023-07-24T05:13:28.415Z,99577.23
2023-07-24T05:14:30.605Z,99575.55
2023-07-24T05:15:33.021Z,99567.13
2023-07-24T05:16:35.540Z,99562.61
2023-07-24T05:17:37.937Z,99562.61
2023-07-24T05:18:40.978Z,99570.72
2023-07-24T05:19:43.658Z,99565.59
2023-07-24T05:20:53.669Z,99558.12
2023-07-24T05:21:56.343Z,99564.73
2023-07-24T05:22:58.633Z,99560.38
2023-07-24T05:24:03.203Z,99558.70
2023-07-24T05:25:07.098Z,99561.91
2023-07-24T05:26:10.266Z,99562.16
2023-07-24T05:27:13.028Z,99559.03
2023-07-24T05:28:15.199Z,99555.39
2023-07-24T05:29:17.454Z,99566.03
2023-07-24T05:30:19.857Z,99555.20
2023-07-24T05:31:22.283Z,99561.09
2023-07-24T05:32:25.576Z,99555.52
2023-07-24T05:33:28.214Z,99559.87
2023-07-24T05:34:30.768Z,99555.56
2023-07-24T05:35:33.017Z,99560.38
2023-07-24T05:36:35.474Z,99564.69
2023-07-24T05:37:37.795Z,99558.55
2023-07-24T05:38:39.853Z,99561.63
2023-07-24T05:39:42.126Z,99560.22
2023-07-24T05:40:44.798Z,99555.91
2023-07-24T05:41:49.631Z,99567.42
2023-07-24T05:42:52.180Z,99556.02
2023-07-24T05:43:55.973Z,99554.95
2023-07-24T05:44:58.639Z,99566.90
2023-07-24T05:46:02.394Z,99557.74
2023-07-24T05:47:04.938Z,99559.37
2023-07-24T05:48:07.298Z,99558.27
2023-07-24T05:49:09.762Z,99562.52
2023-07-24T05:50:14.150Z,99562.52
2023-07-24T05:51:16.737Z,99558.89
2023-07-24T05:52:20.136Z,99560.13
2023-07-24T05:53:22.580Z,99556.09
2023-07-24T05:54:25.085Z,99554.53
2023-07-24T05:55:27.600Z,99559.70
2023-07-24T05:56:30.234Z,99552.22
2023-07-24T05:57:33.080Z,99550.86
2023-07-24T05:58:35.635Z,99560.99
2023-07-24T05:59:38.032Z,99542.80
2023-07-24T06:00:40.408Z,99538.52
2023-07-24T06:01:43.342Z,99535.91
2023-07-24T06:02:45.879Z,99530.14
2023-07-24T06:03:48.240Z,99538.38
2023-07-24T06:04:50.751Z,99532.12
2023-07-24T06:05:54.405Z,99535.75
2023-07-24T06:06:56.910Z,99531.45
2023-07-24T06:07:59.312Z,99538.14
2023-07-24T06:09:01.784Z,99528.94
2023-07-24T06:10:05.900Z,99528.23
2023-07-24T06:11:08.988Z,99525.75
2023-07-24T06:12:11.467Z,99530.74
2023-07-24T06:13:13.859Z,99516.87
2023-07-24T06:14:17.180Z,99521.74
2023-07-24T06:15:19.618Z,99516.31
2023-07-24T06:16:22.592Z,99517.98
2023-07-24T06:17:25.205Z,99524.50
2023-07-24T06:18:27.646Z,99517.69
2023-07-24T06:19:30.120Z,99519.66
2023-07-24T06:20:33.416Z,99517.98
2023-07-24T06:21:36.281Z,99526.88
2023-07-24T06:22:38.654Z,99527.73
2023-07-24T06:23:41.309Z,99524.09
2023-07-24T06:24:44.105Z,99518.80
2023-07-24T06:25:46.676Z,99524.64
2023-07-24T06:26:49.514Z,99522.00
2023-07-24T06:27:52.012Z,99520.76
2023-07-24T06:28:54.736Z,99516.88
2023-07-24T06:30:12.945Z,99507.71
2023-07-24T06:31:03.901Z,99521.48
2023-07-24T06:32:08.556Z,99516.05
2023-07-24T06:33:11.204Z,99517.30
2023-07-24T06:34:14.221Z,99514.92
2023-07-24T06:35:16.462Z,99521.33
2023-07-24T06:36:19.778Z,99510.45
2023-07-24T06:37:23.091Z,99507.96
2023-07-24T06:38:27.003Z,99506.72
2023-07-24T06:39:30.262Z,99504.63
2023-07-24T06:40:33.550Z,99503.34
2023-07-24T06:41:36.066Z,99510.98
2023-07-24T06:42:38.870Z,99506.52
2023-07-24T06:43:44.087Z,99506.52
2023-07-24T06:44:46.568Z,99515.00
2023-07-24T06:45:48.980Z,99511.53
2023-07-24T06:46:51.523Z,99504.97
2023-07-24T06:47:56.082Z,99497.73
2023-07-24T06:48:58.580Z,99499.80
2023-07-24T06:50:00.977Z,99498.36
2023-07-24T06:51:06.443Z,99506.84
2023-07-24T06:52:08.829Z,99504.19
2023-07-24T06:53:11.009Z,99498.63
2023-07-24T06:54:14.294Z,99500.84
2023-07-24T06:55:17.709Z,99508.34
2023-07-24T06:56:20.653Z,99497.45
2023-07-24T06:57:25.146Z,99497.45
2023-07-24T06:58:27.654Z,99497.73
2023-07-24T06:59:30.054Z,99497.59
2023-07-24T07:00:32.640Z,99499.25
2023-07-24T07:01:34.967Z,99499.64
2023-07-24T07:02:37.077Z,99500.34
2023-07-24T07:03:39.450Z,99495.32
2023-07-24T07:04:43.141Z,99487.10
2023-07-24T07:05:45.619Z,99496.40
2023-07-24T07:06:48.361Z,99489.00
2023-07-24T07:07:51.422Z,99491.90
2023-07-24T07:08:53.978Z,99496.50
2023-07-24T07:09:56.480Z,99491.90
2023-07-24T07:11:01.733Z,99488.94
2023-07-24T07:12:04.527Z,99504.54
2023-07-24T07:13:07.234Z,99504.83
2023-07-24T07:14:10.183Z,99486.82
2023-07-24T07:15:13.506Z,99489.63
2023-07-24T07:16:18.065Z,99488.94
2023-07-24T07:17:20.565Z,99489.31
2023-07-24T07:18:22.896Z,99489.72
2023-07-24T07:19:25.121Z,99488.42
2023-07-24T07:20:27.392Z,99489.66
2023-07-24T07:21:29.775Z,99489.78
2023-07-24T07:22:32.052Z,99486.16
2023-07-24T07:23:34.834Z,99484.89
2023-07-24T07:24:37.063Z,99489.12
2023-07-24T07:25:40.120Z,99486.16
2023-07-24T07:26:42.654Z,99480.94
2023-07-24T07:27:46.567Z,99476.02
2023-07-24T07:28:48.943Z,99483.96
2023-07-24T07:29:51.295Z,99480.86
2023-07-24T07:30:54.665Z,99497.61
2023-07-24T07:31:57.199Z,99479.59
2023-07-24T07:32:59.675Z,99475.80
2023-07-24T07:34:01.955Z,99476.63
2023-07-24T07:35:05.118Z,99479.96
2023-07-24T07:36:07.873Z,99477.15
2023-07-24T07:37:10.669Z,99467.64
2023-07-24T07:38:14.284Z,99475.95
2023-07-24T07:39:16.580Z,99478.84
2023-07-24T07:40:18.949Z,99474.36
2023-07-24T07:41:21.501Z,99473.38
2023-07-24T07:42:24.299Z,99479.73
2023-07-24T07:43:26.898Z,99472.06
2023-07-24T07:44:29.106Z,99476.39
2023-07-24T07:45:31.519Z,99481.39
2023-07-24T07:46:34.147Z,99478.58
2023-07-24T07:47:36.436Z,99483.42
2023-07-24T07:48:39.739Z,99467.58
2023-07-24T07:49:43.462Z,99470.59
2023-07-24T07:50:49.432Z,99470.30
2023-07-24T07:51:51.635Z,99469.66
2023-07-24T07:52:54.829Z,99465.17
2023-07-24T07:53:57.665Z,99465.70
2023-07-24T07:55:00.951Z,99470.89
2023-07-24T07:56:03.665Z,99460.44
2023-07-24T07:57:06.594Z,99460.75
2023-07-24T07:58:09.830Z,99465.42
2023-07-24T07:59:12.291Z,99458.66
2023-07-24T08:00:15.968Z,99470.17
2023-07-24T08:01:19.590Z,99463.88
2023-07-24T08:02:22.804Z,99474.14
2023-07-24T08:03:25.750Z,99468.20
2023-07-24T08:04:29.193Z,99472.87
2023-07-24T08:05:32.524Z,99472.70
2023-07-24T08:06:35.165Z,99471.41
2023-07-24T08:07:37.667Z,99463.41
2023-07-24T08:08:41.014Z,99463.41
2023-07-24T08:09:44.497Z,99474.62
2023-07-24T08:10:47.046Z,99469.27
2023-07-24T08:11:49.405Z,99471.92
2023-07-24T08:12:51.889Z,99477.23
2023-07-24T08:13:54.677Z,99459.13
2023-07-24T08:14:57.119Z,99459.13
2023-07-24T08:16:00.110Z,99465.97
2023-07-24T08:17:03.857Z,99469.61
2023-07-24T08:18:07.253Z,99467.64
2023-07-24T08:19:10.565Z,99463.05
2023-07-24T08:20:13.547Z,99466.38
2023-07-24T08:21:16.196Z,99463.08
2023-07-24T08:22:20.480Z,99463.39
2023-07-24T08:23:23.091Z,99457.91
2023-07-24T08:24:26.372Z,99460.76
2023-07-24T08:25:28.998Z,99461.09
2023-07-24T08:26:31.922Z,99459.94
2023-07-24T08:27:45.318Z,99479.38
2023-07-24T08:28:43.392Z,99455.45
2023-07-24T08:29:45.729Z,99461.41
2023-07-24T08:31:01.213Z,99465.39
2023-07-24T08:32:05.897Z,99460.09
2023-07-24T08:33:08.324Z,99461.72
2023-07-24T08:34:11.055Z,99463.58
2023-07-24T08:35:13.611Z,99462.77
2023-07-24T08:36:17.018Z,99462.95
2023-07-24T08:37:20.728Z,99463.49
2023-07-24T08:38:25.309Z,99472.47
2023-07-24T08:39:28.289Z,99462.49
2023-07-24T08:40:30.823Z,99464.34
2023-07-24T08:41:35.606Z,99455.85
2023-07-24T08:42:43.542Z,99456.53
2023-07-24T08:43:46.284Z,99454.55
2023-07-24T08:44:49.179Z,99459.52
2023-07-24T08:45:53.145Z,99459.52
2023-07-24T08:46:56.647Z,99459.86
2023-07-24T08:48:00.369Z,99457.53
2023-07-24T08:49:02.948Z,99456.53
2023-07-24T08:50:07.520Z,99452.70
2023-07-24T08:51:11.641Z,99458.53
2023-07-24T08:52:26.914Z,99473.80
2023-07-24T08:53:21.739Z,99464.17
2023-07-24T08:54:27.170Z,99463.52
2023-07-24T08:55:31.390Z,99461.84
2023-07-24T08:56:34.170Z,99458.70
2023-07-24T08:57:37.229Z,99455.20
2023-07-24T08:58:42.558Z,99451.55
2023-07-24T08:59:44.960Z,99456.55
2023-07-24T09:00:48.390Z,99453.89
2023-07-24T09:01:51.278Z,99452.55
2023-07-24T09:02:53.792Z,99456.20
2023-07-24T09:03:58.260Z,99453.53
2023-07-24T09:05:01.243Z,99447.72
2023-07-24T09:06:10.752Z,99453.22
2023-07-24T09:07:15.068Z,99445.91
2023-07-24T09:08:17.782Z,99448.08
2023-07-24T09:09:21.274Z,99441.56
2023-07-24T09:10:27.858Z,99437.23
2023-07-24T09:11:30.476Z,99436.27
2023-07-24T09:12:33.058Z,99436.27
2023-07-24T09:13:42.450Z,99434.59
2023-07-24T09:14:46.299Z,99427.28
2023-07-24T09:15:48.951Z,99429.93
2023-07-24T09:17:11.948Z,99421.28
2023-07-24T09:18:14.661Z,99420.59
2023-07-24T09:19:26.636Z,99423.58
2023-07-24T09:21:33.430Z,99421.21
2023-07-24T09:22:40.275Z,99428.84
2023-07-24T09:23:41.451Z,99428.84
2023-07-24T09:24:51.588Z,99426.51
2023-07-24T09:25:54.312Z,99428.66
2023-07-24T09:26:58.854Z,99421.49
2023-07-24T09:28:01.049Z,99425.19
2023-07-24T09:29:03.517Z,99425.82
2023-07-24T09:30:16.434Z,99417.83
2023-07-24T09:31:18.982Z,99425.52
2023-07-24T09:32:26.382Z,99422.88
2023-07-24T09:33:40.634Z,99418.55
2023-07-24T09:34:44.003Z,99420.59
2023-07-24T09:35:48.829Z,99424.92
2023-07-24T09:36:51.377Z,99409.27
2023-07-24T09:38:11.887Z,99411.59
2023-07-24T09:39:14.301Z,99411.59
2023-07-24T09:40:16.790Z,99413.02
2023-07-24T09:41:23.354Z,99409.06
2023-07-24T09:42:35.135Z,99412.03
2023-07-24T09:43:39.654Z,99412.39
2023-07-24T09:44:42.678Z,99404.86
2023-07-24T09:45:46.490Z,99404.86
2023-07-24T09:47:06.547Z,99407.46
2023-07-24T09:48:00.302Z,99404.28
2023-07-24T09:50:08.158Z,99394.81
2023-07-24T09:51:15.888Z,99401.84
2023-07-24T09:52:21.152Z,99394.33
2023-07-24T09:53:36.272Z,99397.78
2023-07-24T09:54:45.771Z,99405.61
2023-07-24T09:55:54.550Z,99404.77
2023-07-24T09:57:07.205Z,99400.33
2023-07-24T09:58:04.745Z,99411.45
2023-07-24T09:59:07.691Z,99385.47
2023-07-24T10:00:13.377Z,99407.46
2023-07-24T10:01:18.178Z,99394.81
2023-07-24T10:02:22.069Z,99389.16
2023-07-24T10:03:25.223Z,99398.78
2023-07-24T10:04:28.656Z,99387.02
2023-07-24T10:05:35.060Z,99383.17
2023-07-24T10:06:38.307Z,99382.80
2023-07-24T10:07:42.264Z,99390.04
2023-07-24T10:08:48.080Z,99384.13
2023-07-24T10:09:51.733Z,99389.45
2023-07-24T10:10:55.219Z,99382.46
2023-07-24T10:11:58.587Z,99393.11
2023-07-24T10:13:01.428Z,99382.46
2023-07-24T10:14:04.801Z,99396.41
2023-07-24T10:15:08.767Z,99385.23
2023-07-24T10:16:12.493Z,99385.71
2023-07-24T10:17:18.863Z,99386.96
2023-07-24T10:18:23.882Z,99374.06
2023-07-24T10:19:39.094Z,99371.69
2023-07-24T10:20:42.728Z,99376.48
2023-07-24T10:21:47.615Z,99376.14
2023-07-24T10:22:50.406Z,99369.09
2023-07-24T10:23:53.033Z,99374.02
2023-07-24T10:24:57.915Z,99371.94
2023-07-24T10:26:06.997Z,99373.41
2023-07-24T10:27:10.434Z,99369.90
2023-07-24T10:28:16.102Z,99376.80
2023-07-24T10:29:20.556Z,99381.41
2023-07-24T10:30:34.801Z,99381.29
2023-07-24T10:31:31.795Z,99379.62
2023-07-24T10:32:36.467Z,99371.56
2023-07-24T10:33:42.652Z,99379.84
2023-07-24T10:34:45.867Z,99382.09
2023-07-24T10:35:52.221Z,99364.97
2023-07-24T10:36:58.232Z,99364.97
2023-07-24T10:38:02.572Z,99371.77
2023-07-24T10:39:08.949Z,99364.97
2023-07-24T10:40:19.918Z,99364.34
2023-07-24T10:41:22.959Z,99364.77
2023-07-24T10:42:26.395Z,99379.14
2023-07-24T10:43:28.542Z,99363.03
2023-07-24T10:44:32.467Z,99366.55
2023-07-24T10:46:55.604Z,99353.67
2023-07-24T10:47:57.926Z,99352.73
2023-07-24T10:49:02.930Z,99362.16
2023-07-24T10:50:07.269Z,99353.07
2023-07-24T10:51:10.794Z,99368.67
2023-07-24T10:52:13.106Z,99351.02
2023-07-24T10:53:17.519Z,99354.33
2023-07-24T10:54:22.537Z,99364.36
2023-07-24T10:55:25.544Z,99359.47
2023-07-24T10:56:30.607Z,99353.59
2023-07-24T10:57:33.042Z,99354.06
2023-07-24T10:58:37.234Z,99356.14
2023-07-24T10:59:40.089Z,99359.03
2023-07-24T11:00:45.410Z,99361.99
2023-07-24T11:01:48.263Z,99356.27
2023-07-24T11:02:54.319Z,99365.75
2023-07-24T11:03:56.686Z,99351.19
2023-07-24T11:05:01.758Z,99345.69
2023-07-24T11:06:04.674Z,99343.25
2023-07-24T11:07:08.137Z,99351.60
2023-07-24T11:08:16.510Z,99344.30
2023-07-24T11:09:19.075Z,99346.13
2023-07-24T11:10:23.668Z,99350.98
2023-07-24T11:12:41.819Z,99338.00
2023-07-24T11:13:44.037Z,99351.47
2023-07-24T11:14:50.652Z,99346.27
2023-07-24T11:15:54.503Z,99347.14
2023-07-24T11:16:57.301Z,99341.38
2023-07-24T11:18:02.438Z,99345.59
2023-07-24T11:19:04.872Z,99329.94
2023-07-24T11:20:10.436Z,99322.37
2023-07-24T11:21:13.606Z,99324.52
2023-07-24T11:22:16.160Z,99323.30
2023-07-24T11:23:18.906Z,99330.10
2023-07-24T11:24:21.251Z,99329.12
2023-07-24T11:25:25.262Z,99324.07
2023-07-24T11:26:28.738Z,99331.12
2023-07-24T11:27:31.133Z,99324.12
2023-07-24T11:28:37.852Z,99324.44
2023-07-24T11:29:40.101Z,99318.65
2023-07-24T11:30:44.427Z,99337.47
2023-07-24T11:31:47.282Z,99322.61
2023-07-24T11:32:50.554Z,99316.75
2023-07-24T11:33:55.212Z,99327.19
2023-07-24T11:34:57.833Z,99333.10
2023-07-24T11:36:01.553Z,99319.66
2023-07-24T11:37:05.512Z,99319.42
2023-07-24T11:38:12.212Z,99311.52
2023-07-24T11:39:15.006Z,99321.52
2023-07-24T11:40:20.413Z,99310.31
2023-07-24T11:41:22.893Z,99317.84
2023-07-24T11:42:28.008Z,99317.84
2023-07-24T11:43:30.503Z,99320.42
2023-07-24T11:44:33.002Z,99303.64
2023-07-24T11:45:46.333Z,99317.11
2023-07-24T11:46:49.064Z,99306.41
2023-07-24T11:47:54.524Z,99303.17
2023-07-24T11:48:57.689Z,99297.45
2023-07-24T11:50:02.928Z,99316.08
2023-07-24T11:51:05.125Z,99315.20
2023-07-24T11:52:08.487Z,99308.13
2023-07-24T11:53:23.482Z,99300.67
2023-07-24T11:54:25.811Z,99303.58
2023-07-24T11:55:33.693Z,99299.41
2023-07-24T11:56:36.256Z,99287.21
2023-07-24T11:57:38.853Z,99298.64
2023-07-24T11:58:42.390Z,99304.17
2023-07-24T11:59:45.976Z,99304.17
2023-07-24T12:00:52.069Z,99295.76
2023-07-24T12:01:55.062Z,99304.17
2023-07-24T12:03:01.867Z,99292.52
2023-07-24T12:04:05.841Z,99285.11
2023-07-24T12:05:10.565Z,99292.39
2023-07-24T12:06:17.348Z,99291.77
2023-07-24T12:07:20.828Z,99293.99
2023-07-24T12:08:34.511Z,99291.59
2023-07-24T12:09:38.651Z,99289.77
2023-07-24T12:10:41.814Z,99286.08
2023-07-24T12:11:46.996Z,99275.44
2023-07-24T12:12:49.352Z,99281.86
2023-07-24T12:13:51.787Z,99281.95
2023-07-24T12:14:54.247Z,99269.60
2023-07-24T12:15:56.878Z,99272.27
2023-07-24T12:17:03.338Z,99268.39
2023-07-24T12:18:06.568Z,99270.55
2023-07-24T12:19:09.065Z,99262.35
2023-07-24T12:20:12.640Z,99264.82
2023-07-24T12:21:15.037Z,99265.67
2023-07-24T12:22:19.573Z,99275.40
2023-07-24T12:23:21.898Z,99267.11
2023-07-24T12:24:24.247Z,99261.64
2023-07-24T12:25:26.682Z,99271.40
2023-07-24T12:26:29.142Z,99268.09
2023-07-24T12:27:31.804Z,99266.34
2023-07-24T12:28:34.368Z,99268.97
2023-07-24T12:29:37.264Z,99260.94
2023-07-24T12:30:41.184Z,99256.16
2023-07-24T12:31:44.111Z,99250.23
2023-07-24T12:32:46.686Z,99254.20
2023-07-24T12:33:49.021Z,99244.47
2023-07-24T12:34:53.855Z,99253.55
2023-07-24T12:35:57.399Z,99246.72
2023-07-24T12:37:01.024Z,99243.89
2023-07-24T12:38:03.359Z,99240.26